Time;durP1;ratioP1;P1;durP2;ratioP2;P2;SDS_P1;SDS_P2;PMS_P1;PMS_P2;Temp;Humidity;BMP_temperature;BMP_pressure;BME280_temperature;BME280_humidity;BME280_pressure;Samples;Min_cycle;Max_cycle;Signal;HPM_P1;HPM_P2
2024/02/20 00:00:05;;;;;;;3.00;2.20;;;;;;;-1.19;87.63;101263.78;87233;278;136367;-72
2024/02/20 00:02:12;;;;;;;6.20;2.60;;;;;;;-1.23;87.79;101263.85;87439;270;22559;-72
2024/02/20 00:04:17;;;;;;;4.60;3.00;;;;;;;-1.25;87.84;101260.33;88252;267;137448;-71
2024/02/20 00:06:19;;;;;;;4.40;3.20;;;;;;;-1.28;88.18;101258.57;88798;269;22602;-71
2024/02/20 00:08:21;;;;;;;5.20;3.80;;;;;;;-1.28;88.11;101257.67;88956;266;135832;-72
2024/02/20 00:10:24;;;;;;;4.00;2.90;;;;;;;-1.29;88.14;101255.85;88933;266;22564;-71
2024/02/20 00:12:28;;;;;;;2.40;2.20;;;;;;;-1.29;88.05;101250.59;88258;269;136585;-72
2024/02/20 00:14:29;;;;;;;3.20;2.30;;;;;;;-1.23;87.88;101246.41;87719;266;22734;-72
2024/02/20 00:16:31;;;;;;;6.20;3.50;;;;;;;-1.19;87.65;101239.19;87190;266;137086;-69
2024/02/20 00:18:34;;;;;;;2.60;2.10;;;;;;;-1.16;87.44;101236.92;87234;268;25121;-70
2024/02/20 00:20:38;;;;;;;4.60;2.50;;;;;;;-1.19;87.64;101237.45;87096;268;136316;-71
2024/02/20 00:22:40;;;;;;;3.80;2.60;;;;;;;-1.23;87.31;101233.72;87329;270;26156;-70
2024/02/20 00:24:42;;;;;;;6.00;3.30;;;;;;;-1.28;87.67;101234.81;87270;266;136468;-70
2024/02/20 00:26:44;;;;;;;3.30;2.50;;;;;;;-1.29;87.69;101234.77;87084;278;22545;-72
2024/02/20 00:28:45;;;;;;;3.50;1.90;;;;;;;-1.31;87.94;101228.39;87024;270;136203;-70
2024/02/20 00:30:47;;;;;;;5.30;2.20;;;;;;;-1.30;88.32;101228.20;87072;271;22555;-71
2024/02/20 00:32:50;;;;;;;4.10;2.00;;;;;;;-1.27;88.20;101226.27;87068;270;138253;-71
2024/02/20 00:34:52;;;;;;;3.90;1.90;;;;;;;-1.26;88.27;101222.49;87254;270;22715;-71
2024/02/20 00:36:54;;;;;;;3.90;2.40;;;;;;;-1.26;88.15;101219.20;87074;275;136733;-71
2024/02/20 00:38:56;;;;;;;3.90;2.70;;;;;;;-1.28;88.27;101215.83;87229;269;22563;-71
2024/02/20 00:40:58;;;;;;;5.50;3.70;;;;;;;-1.31;88.72;101217.27;87067;274;136232;-70
2024/02/20 00:42:59;;;;;;;4.00;2.70;;;;;;;-1.36;89.02;101218.73;87116;266;22649;-71
2024/02/20 00:45:03;;;;;;;4.70;2.80;;;;;;;-1.37;89.14;101219.50;87087;266;136036;-69
2024/02/20 00:47:09;;;;;;;3.80;2.10;;;;;;;-1.40;89.82;101218.27;87214;278;22953;-70
2024/02/20 00:49:12;;;;;;;4.00;2.30;;;;;;;-1.40;89.90;101211.66;87167;271;136566;-71
2024/02/20 00:51:19;;;;;;;6.90;2.60;;;;;;;-1.35;89.61;101209.64;87168;269;24536;-72
2024/02/20 00:53:21;;;;;;;2.60;2.10;;;;;;;-1.30;89.53;101208.96;87101;279;136672;-70
2024/02/20 00:55:23;;;;;;;2.20;2.00;;;;;;;-1.24;89.60;101208.63;87069;269;25089;-72
2024/02/20 00:57:26;;;;;;;2.20;1.90;;;;;;;-1.22;89.43;101206.10;87092;270;136493;-70
2024/02/20 00:59:29;;;;;;;4.60;2.40;;;;;;;-1.24;89.59;101204.98;87191;269;25910;-70
2024/02/20 01:01:31;;;;;;;2.70;2.20;;;;;;;-1.32;90.16;101204.05;87113;271;136019;-70
2024/02/20 01:03:33;;;;;;;4.80;2.50;;;;;;;-1.38;90.71;101205.96;87175;274;25319;-71
2024/02/20 01:05:35;;;;;;;2.30;2.10;;;;;;;-1.44;91.26;101204.52;87122;273;136244;-70
2024/02/20 01:09:34;;;;;;;2.10;1.80;;;;;;;-1.61;92.76;101200.13;84902;307;603757;-70
2024/02/20 01:11:37;;;;;;;3.10;2.10;;;;;;;-1.61;93.31;101195.45;86422;290;22859;-69
2024/02/20 01:13:39;;;;;;;3.60;2.20;;;;;;;-1.53;93.10;101195.15;86062;290;136228;-71
2024/02/20 01:15:41;;;;;;;3.40;2.30;;;;;;;-1.51;92.93;101190.38;86109;283;22568;-70
2024/02/20 01:17:43;;;;;;;2.60;2.00;;;;;;;-1.57;93.25;101191.74;85881;291;135632;-70
2024/02/20 01:19:45;;;;;;;2.10;1.60;;;;;;;-1.62;93.76;101190.45;85959;288;22571;-70
2024/02/20 01:21:47;;;;;;;3.80;2.70;;;;;;;-1.63;94.03;101189.44;86029;290;135190;-72
2024/02/20 01:23:48;;;;;;;4.00;2.70;;;;;;;-1.64;93.94;101186.20;85760;284;566107;-71
2024/02/20 01:25:50;;;;;;;3.20;2.10;;;;;;;-1.67;94.41;101189.34;86134;282;135334;-71
2024/02/20 01:27:52;;;;;;;3.10;2.80;;;;;;;-1.63;94.16;101185.77;86164;286;22654;-71
2024/02/20 01:29:54;;;;;;;3.20;2.10;;;;;;;-1.60;94.14;101183.48;86181;285;136382;-70
2024/02/20 01:31:56;;;;;;;8.40;2.60;;;;;;;-1.58;94.34;101179.92;86217;289;26237;-70
2024/02/20 01:33:58;;;;;;;2.70;2.00;;;;;;;-1.63;94.56;101172.20;86160;285;135864;-71
2024/02/20 01:36:00;;;;;;;4.00;2.60;;;;;;;-1.69;95.01;101170.45;86047;290;22571;-70
2024/02/20 01:38:02;;;;;;;5.00;2.10;;;;;;;-1.71;95.06;101165.02;86323;290;138235;-72
2024/02/20 01:40:04;;;;;;;2.50;2.30;;;;;;;-1.68;95.43;101170.77;86079;290;136879;-69
2024/02/20 01:42:06;;;;;;;3.50;2.80;;;;;;;-1.64;95.05;101175.40;86620;283;24018;-70
2024/02/20 01:44:08;;;;;;;3.00;2.50;;;;;;;-1.64;95.22;101176.44;86639;275;136371;-70
2024/02/20 01:46:16;;;;;;;5.30;2.70;;;;;;;-1.68;95.65;101173.73;86790;281;24142;-70
2024/02/20 01:48:18;;;;;;;4.10;3.30;;;;;;;-1.71;95.67;101176.17;86593;279;137438;-71
2024/02/20 01:50:20;;;;;;;3.30;2.90;;;;;;;-1.74;96.12;101172.48;86761;275;24872;-71
2024/02/20 01:52:23;;;;;;;5.20;3.10;;;;;;;-1.76;96.47;101172.94;86643;275;135695;-70
2024/02/20 01:54:25;;;;;;;3.10;2.80;;;;;;;-1.73;96.50;101167.57;86870;284;24772;-70
2024/02/20 01:56:28;;;;;;;3.30;2.70;;;;;;;-1.68;96.56;101167.64;86822;271;136617;-71
2024/02/20 01:58:30;;;;;;;4.40;3.50;;;;;;;-1.69;96.50;101164.73;86890;284;23782;-70
2024/02/20 02:00:33;;;;;;;4.40;3.10;;;;;;;-1.73;96.89;101171.23;86757;275;135728;-70
2024/02/20 02:02:35;;;;;;;5.20;3.60;;;;;;;-1.78;97.28;101173.41;86747;275;24897;-71
2024/02/20 02:04:36;;;;;;;4.30;3.30;;;;;;;-1.80;97.39;101172.31;86697;279;135786;-71
2024/02/20 02:06:38;;;;;;;4.20;3.40;;;;;;;-1.79;97.47;101166.83;86766;275;25237;-72
2024/02/20 02:08:42;;;;;;;3.10;2.80;;;;;;;-1.72;97.24;101167.83;86655;280;137547;-71
2024/02/20 02:10:45;;;;;;;3.00;2.70;;;;;;;-1.67;97.63;101169.96;86614;279;22573;-71
2024/02/20 02:12:48;;;;;;;3.60;3.00;;;;;;;-1.65;97.59;101170.41;86553;275;136317;-70
2024/02/20 02:14:50;;;;;;;5.60;3.50;;;;;;;-1.70;97.84;101164.20;87900;281;22583;-70
2024/02/20 02:16:52;;;;;;;3.70;3.10;;;;;;;-1.75;98.48;101169.92;86519;281;135804;-71
2024/02/20 02:18:54;;;;;;;4.10;3.30;;;;;;;-1.80;98.91;101164.27;86689;275;22570;-71
2024/02/20 02:20:55;;;;;;;4.60;3.20;;;;;;;-1.77;99.21;101164.31;86532;272;136152;-71
2024/02/20 02:22:57;;;;;;;5.30;3.40;;;;;;;-1.72;98.89;101158.10;86712;276;22657;-70
2024/02/20 02:24:59;;;;;;;5.10;3.80;;;;;;;-1.70;98.70;101158.30;86644;276;136101;-71
2024/02/20 02:27:02;;;;;;;5.40;4.00;;;;;;;-1.76;99.22;101159.16;86985;276;22673;-71
2024/02/20 02:29:04;;;;;;;5.40;4.20;;;;;;;-1.79;99.32;101156.21;86643;276;135727;-71
2024/02/20 02:31:06;;;;;;;4.70;4.00;;;;;;;-1.82;99.50;101157.05;86539;273;24302;-70
2024/02/20 02:33:08;;;;;;;5.20;2.80;;;;;;;-1.79;99.63;101162.13;86615;283;136001;-71
2024/02/20 02:35:11;;;;;;;4.10;3.50;;;;;;;-1.69;99.27;101159.27;86711;276;25724;-69
2024/02/20 02:37:12;;;;;;;4.30;3.70;;;;;;;-1.61;98.65;101157.06;86685;283;137539;-69
2024/02/20 02:39:16;;;;;;;5.10;4.20;;;;;;;-1.62;98.65;101158.90;86770;279;22579;-70
2024/02/20 02:41:18;;;;;;;4.10;3.30;;;;;;;-1.68;99.18;101155.60;86694;279;136799;-70
2024/02/20 02:43:20;;;;;;;4.30;3.50;;;;;;;-1.75;99.59;101141.20;86959;281;22568;-70
2024/02/20 02:45:22;;;;;;;4.30;3.80;;;;;;;-1.80;99.91;101135.34;87014;277;135786;-71
2024/02/20 02:47:24;;;;;;;4.20;3.80;;;;;;;-1.78;100.00;101131.91;86887;274;25179;-70
2024/02/20 02:49:26;;;;;;;4.50;2.90;;;;;;;-1.71;99.93;101124.55;86877;273;136462;-72
2024/02/20 02:51:28;;;;;;;4.10;3.80;;;;;;;-1.70;99.91;101120.67;86907;281;25191;-72
2024/02/20 02:53:30;;;;;;;6.10;4.90;;;;;;;-1.73;99.99;101118.09;86803;273;137381;-71
2024/02/20 02:55:34;;;;;;;4.40;3.50;;;;;;;-1.78;100.00;101122.02;86930;277;22600;-70
2024/02/20 02:57:36;;;;;;;6.80;3.90;;;;;;;-1.83;100.00;101120.03;86792;269;135938;-70
2024/02/20 02:59:38;;;;;;;4.70;4.20;;;;;;;-1.84;100.00;101115.92;87105;273;22655;-70
2024/02/20 03:01:39;;;;;;;6.80;4.00;;;;;;;-1.81;100.00;101119.23;86857;274;136044;-71
2024/02/20 03:03:41;;;;;;;4.70;4.20;;;;;;;-1.77;100.00;101112.70;86959;281;26307;-70
2024/02/20 03:05:43;;;;;;;5.50;3.90;;;;;;;-1.74;100.00;101113.05;86839;273;136831;-70
2024/02/20 03:07:45;;;;;;;4.70;4.20;;;;;;;-1.69;100.00;101111.93;86972;273;27210;-68
2024/02/20 03:09:47;;;;;;;6.20;4.90;;;;;;;-1.66;100.00;101110.18;86918;273;136190;-72
2024/02/20 03:11:49;;;;;;;3.40;3.10;;;;;;;-1.65;99.99;101114.29;86966;269;25223;-70
2024/02/20 03:13:50;;;;;;;4.80;4.20;;;;;;;-1.67;100.00;101110.59;86776;265;135848;-70
2024/02/20 03:15:53;;;;;;;7.40;4.10;;;;;;;-1.70;100.00;101107.06;86954;277;22846;-70
2024/02/20 03:17:55;;;;;;;5.30;3.60;;;;;;;-1.70;99.98;101112.45;86926;273;137101;-70
2024/02/20 03:19:57;;;;;;;4.40;4.00;;;;;;;-1.68;99.64;101113.09;86878;273;25246;-70
2024/02/20 03:21:58;;;;;;;4.40;4.00;;;;;;;-1.64;98.81;101109.17;86907;270;136899;-70
2024/02/20 03:24:00;;;;;;;4.20;3.20;;;;;;;-1.62;98.15;101114.10;86999;274;25258;-69
2024/02/20 03:26:03;;;;;;;5.40;3.50;;;;;;;-1.59;97.24;101111.62;86987;274;25153;-70
2024/02/20 03:28:06;;;;;;;6.60;3.80;;;;;;;-1.59;97.42;101113.02;86921;281;138424;-70
2024/02/20 03:30:10;;;;;;;4.50;2.80;;;;;;;-1.64;96.97;101107.92;87175;273;22555;-72
2024/02/20 03:32:12;;;;;;;5.70;4.40;;;;;;;-1.68;96.63;101110.61;87231;281;135677;-69
2024/02/20 03:34:13;;;;;;;3.70;3.20;;;;;;;-1.68;96.79;101115.13;87014;273;25223;-71
2024/02/20 03:36:16;;;;;;;4.10;3.00;;;;;;;-1.63;96.68;101115.36;86911;277;137579;-70
2024/02/20 03:38:20;;;;;;;4.50;3.60;;;;;;;-1.59;95.97;101114.80;87010;269;25132;-68
2024/02/20 03:40:22;;;;;;;5.30;3.50;;;;;;;-1.58;96.04;101119.46;87087;281;136369;-69
2024/02/20 03:42:24;;;;;;;6.40;3.80;;;;;;;-1.63;96.17;101120.59;87011;273;24324;-70
2024/02/20 03:44:27;;;;;;;4.60;3.30;;;;;;;-1.67;96.43;101123.48;87064;281;136105;-68
2024/02/20 03:46:31;;;;;;;4.00;3.60;;;;;;;-1.68;97.20;101122.33;86809;279;24068;-69
2024/02/20 03:48:33;;;;;;;4.40;3.90;;;;;;;-1.64;96.56;101122.77;86975;277;137419;-71
2024/02/20 03:50:35;;;;;;;5.00;4.30;;;;;;;-1.61;96.61;101118.55;86975;273;25245;-70
2024/02/20 03:52:37;;;;;;;5.50;4.00;;;;;;;-1.58;96.15;101120.81;87070;277;136930;-69
2024/02/20 03:54:40;;;;;;;3.70;3.30;;;;;;;-1.57;96.26;101123.03;87000;276;23782;-72
2024/02/20 03:56:41;;;;;;;3.90;3.50;;;;;;;-1.62;96.16;101120.93;86892;270;135715;-70
2024/02/20 03:58:44;;;;;;;3.70;3.20;;;;;;;-1.65;96.51;101118.48;86940;277;23896;-71
2024/02/20 04:00:46;;;;;;;4.10;3.60;;;;;;;-1.68;96.61;101114.12;87095;273;137524;-68
2024/02/20 04:02:48;;;;;;;4.40;3.70;;;;;;;-1.67;96.54;101110.24;86973;277;22567;-71
2024/02/20 04:04:49;;;;;;;4.20;3.60;;;;;;;-1.64;96.57;101114.08;86876;273;136756;-71
2024/02/20 04:06:52;;;;;;;2.80;2.60;;;;;;;-1.61;96.38;101113.16;86991;274;24003;-71
2024/02/20 04:08:54;;;;;;;4.80;3.50;;;;;;;-1.59;96.12;101108.70;86908;273;136577;-68
2024/02/20 04:10:56;;;;;;;3.70;3.40;;;;;;;-1.54;95.92;101108.38;87032;280;25150;-69
2024/02/20 04:12:59;;;;;;;4.00;3.40;;;;;;;-1.50;95.93;101105.20;86836;282;135941;-70
2024/02/20 04:15:05;;;;;;;4.80;4.30;;;;;;;-1.53;95.73;101100.84;87018;273;25106;-70
2024/02/20 04:17:06;;;;;;;4.40;3.40;;;;;;;-1.57;95.97;101096.35;87001;280;135937;-71
2024/02/20 04:19:08;;;;;;;4.50;3.40;;;;;;;-1.60;95.88;101091.50;86976;273;25081;-71
2024/02/20 04:21:10;;;;;;;4.10;3.80;;;;;;;-1.60;96.34;101089.92;86918;273;136212;-71
2024/02/20 04:23:12;;;;;;;5.10;3.70;;;;;;;-1.59;96.32;101088.45;86957;268;23710;-70
2024/02/20 04:25:15;;;;;;;3.80;3.50;;;;;;;-1.56;96.14;101092.50;86835;268;138170;-71
2024/02/20 04:27:17;;;;;;;6.70;3.70;;;;;;;-1.55;96.25;101093.33;87039;282;26307;-70
2024/02/20 04:29:19;;;;;;;3.80;3.40;;;;;;;-1.56;95.97;101092.30;86788;270;136772;-68
2024/02/20 04:31:22;;;;;;;4.40;3.40;;;;;;;-1.59;96.05;101092.13;86707;276;23757;-68
2024/02/20 04:33:24;;;;;;;5.90;3.00;;;;;;;-1.63;96.43;101090.08;86972;277;140181;-67
2024/02/20 04:35:27;;;;;;;4.70;4.30;;;;;;;-1.66;97.00;101089.61;87043;273;25252;-71
2024/02/20 04:37:29;;;;;;;4.70;4.00;;;;;;;-1.67;96.87;101087.91;86995;273;137487;-71
2024/02/20 04:39:31;;;;;;;6.40;3.90;;;;;;;-1.65;96.58;101095.63;87033;273;23148;-71
2024/02/20 04:41:35;;;;;;;3.90;3.50;;;;;;;-1.60;96.65;101091.30;87110;273;139648;-71
2024/02/20 04:43:37;;;;;;;5.50;3.30;;;;;;;-1.54;96.45;101092.90;87011;269;24116;-72
2024/02/20 04:45:39;;;;;;;4.00;3.60;;;;;;;-1.50;96.37;101091.41;86931;273;137169;-70
2024/02/20 04:47:41;;;;;;;3.30;3.00;;;;;;;-1.46;96.25;101095.73;86959;273;22575;-69
2024/02/20 04:49:43;;;;;;;4.40;3.60;;;;;;;-1.47;96.05;101095.59;86762;270;135921;-71
2024/02/20 04:51:45;;;;;;;3.70;3.40;;;;;;;-1.49;95.78;101091.55;86868;274;22618;-73
2024/02/20 04:53:47;;;;;;;5.80;3.90;;;;;;;-1.50;95.89;101093.52;86866;268;137498;-71
2024/02/20 04:55:49;;;;;;;5.10;4.10;;;;;;;-1.50;96.03;101097.52;87009;273;22587;-70
2024/02/20 04:57:51;;;;;;;4.80;4.40;;;;;;;-1.48;95.63;101101.75;86912;274;136965;-72
2024/02/20 04:59:53;;;;;;;4.20;3.40;;;;;;;-1.43;95.57;101100.44;87122;280;22596;-72
2024/02/20 05:01:55;;;;;;;4.30;3.10;;;;;;;-1.39;95.49;101098.58;86625;274;136517;-71
2024/02/20 05:03:58;;;;;;;4.20;3.70;;;;;;;-1.33;95.35;101102.48;87169;274;25153;-74
2024/02/20 05:06:01;;;;;;;7.80;4.30;;;;;;;-1.32;94.80;101101.16;86886;282;135978;-72
2024/02/20 05:08:04;;;;;;;4.40;3.40;;;;;;;-1.32;94.99;101103.61;87025;270;136470;-72
2024/02/20 05:10:07;;;;;;;5.60;3.30;;;;;;;-1.35;95.21;101098.58;87027;269;24048;-71
2024/02/20 05:12:09;;;;;;;4.10;3.60;;;;;;;-1.39;95.25;101098.80;86952;269;136482;-70
2024/02/20 05:14:11;;;;;;;3.90;3.30;;;;;;;-1.43;95.08;101095.68;86785;274;25163;-71
2024/02/20 05:16:13;;;;;;;4.80;4.30;;;;;;;-1.44;95.07;101091.05;86711;271;138037;-71
2024/02/20 05:18:15;;;;;;;7.00;4.70;;;;;;;-1.39;95.08;101082.05;86869;272;22671;-72
2024/02/20 05:20:17;;;;;;;4.30;3.70;;;;;;;-1.35;94.83;101082.32;86498;279;138069;-70
2024/02/20 05:22:19;;;;;;;8.80;4.50;;;;;;;-1.32;94.25;101084.45;86815;281;22809;-70
2024/02/20 05:24:22;;;;;;;5.20;4.00;;;;;;;-1.32;94.38;101087.05;86789;273;136399;-69
2024/02/20 05:26:24;;;;;;;5.20;4.30;;;;;;;-1.34;94.56;101085.11;86873;277;22602;-70
2024/02/20 05:28:27;;;;;;;6.20;4.60;;;;;;;-1.37;94.78;101086.45;86719;269;138374;-68
2024/02/20 05:30:30;;;;;;;8.00;5.20;;;;;;;-1.40;94.63;101093.95;87603;276;22580;-69
2024/02/20 05:32:32;;;;;;;4.80;4.20;;;;;;;-1.39;95.00;101099.34;86709;268;136559;-68
2024/02/20 05:34:34;;;;;;;4.30;3.40;;;;;;;-1.38;94.83;101096.77;86910;274;22591;-69
2024/02/20 05:36:37;;;;;;;5.90;4.70;;;;;;;-1.34;94.65;101097.79;86959;273;136974;-67
2024/02/20 05:38:39;;;;;;;5.70;4.30;;;;;;;-1.30;94.50;101096.70;86996;273;24000;-68
2024/02/20 05:40:41;;;;;;;4.70;4.10;;;;;;;-1.28;94.78;101093.75;87004;273;136568;-67
2024/02/20 05:42:43;;;;;;;4.30;3.80;;;;;;;-1.30;94.67;101100.52;86970;281;26202;-67
2024/02/20 05:44:45;;;;;;;4.90;4.00;;;;;;;-1.34;94.52;101104.11;86675;283;135642;-67
2024/02/20 05:46:47;;;;;;;6.10;4.20;;;;;;;-1.38;94.99;101105.65;86884;273;25246;-71
2024/02/20 05:48:49;;;;;;;4.90;4.00;;;;;;;-1.40;95.23;101105.11;86818;281;136222;-70
2024/02/20 05:50:51;;;;;;;5.40;3.60;;;;;;;-1.36;94.93;101104.73;86952;281;25384;-70
2024/02/20 05:52:53;;;;;;;5.40;4.80;;;;;;;-1.30;94.99;101105.77;87293;275;136505;-69
2024/02/20 05:54:55;;;;;;;5.30;4.10;;;;;;;-1.24;94.85;101110.98;86877;266;22643;-69
2024/02/20 05:56:57;;;;;;;4.00;3.50;;;;;;;-1.20;94.44;101109.82;86967;269;136530;-70
2024/02/20 05:58:59;;;;;;;4.60;4.10;;;;;;;-1.22;93.95;101111.86;87050;273;23776;-69
2024/02/20 06:01:01;;;;;;;4.40;4.00;;;;;;;-1.26;94.00;101110.02;86818;269;137076;-72
2024/02/20 06:03:03;;;;;;;4.40;4.00;;;;;;;-1.28;93.54;101110.19;86940;273;25092;-69
2024/02/20 06:05:07;;;;;;;5.90;3.60;;;;;;;-1.29;93.86;101107.11;86828;269;136468;-69
2024/02/20 06:07:09;;;;;;;4.10;3.70;;;;;;;-1.28;93.83;101101.81;86966;273;22572;-68
2024/02/20 06:09:11;;;;;;;3.60;3.30;;;;;;;-1.25;93.32;101106.33;87106;271;136707;-69
2024/02/20 06:11:18;;;;;;;6.40;3.10;;;;;;;-1.22;92.98;101101.29;87324;274;24692;-69
2024/02/20 06:13:20;;;;;;;6.50;4.40;;;;;;;-1.22;92.49;101100.20;87142;267;136620;-70
2024/02/20 06:15:24;;;;;;;4.80;3.60;;;;;;;-1.21;92.17;101091.92;87037;267;22638;-69
2024/02/20 06:17:27;;;;;;;3.70;3.40;;;;;;;-1.20;92.10;101094.85;87134;269;136056;-67
2024/02/20 06:19:28;;;;;;;3.60;3.30;;;;;;;-1.21;92.10;101094.34;87053;279;22578;-67
2024/02/20 06:21:31;;;;;;;4.30;3.40;;;;;;;-1.23;91.70;101092.76;87057;274;136934;-70
2024/02/20 06:23:36;;;;;;;3.90;3.30;;;;;;;-1.21;91.45;101086.70;87176;276;22558;-69
2024/02/20 06:25:42;;;;;;;4.70;3.80;;;;;;;-1.15;91.14;101085.83;87270;274;137531;-69
2024/02/20 06:27:45;;;;;;;6.30;3.40;;;;;;;-1.09;90.57;101088.25;87204;269;24008;-69
2024/02/20 06:29:47;;;;;;;4.50;3.90;;;;;;;-1.07;89.85;101089.65;87215;271;136479;-67
2024/02/20 06:31:51;;;;;;;5.30;3.90;;;;;;;-1.08;89.54;101085.57;87139;271;22588;-69
2024/02/20 06:33:53;;;;;;;4.40;3.40;;;;;;;-1.10;89.70;101090.77;87038;276;136064;-68
2024/02/20 06:35:55;;;;;;;4.20;3.80;;;;;;;-1.15;89.42;101082.84;87094;271;24062;-70
2024/02/20 06:37:57;;;;;;;4.30;3.90;;;;;;;-1.17;89.48;101090.69;86925;280;135984;-69
2024/02/20 06:39:59;;;;;;;4.10;3.50;;;;;;;-1.19;89.49;101091.11;87833;271;24059;-67
2024/02/20 06:42:02;;;;;;;7.30;3.50;;;;;;;-1.15;89.77;101087.61;87167;269;136468;-70
2024/02/20 06:44:03;;;;;;;4.10;3.40;;;;;;;-1.10;89.43;101089.86;87033;271;138379;-69
2024/02/20 06:46:05;;;;;;;4.80;3.50;;;;;;;-1.05;88.88;101084.34;87122;268;22664;-69
2024/02/20 06:48:07;;;;;;;4.40;3.60;;;;;;;-1.01;88.24;101085.63;86842;272;136953;-66
2024/02/20 06:50:12;;;;;;;6.00;3.50;;;;;;;-1.01;88.16;101087.25;87103;272;23280;-70
2024/02/20 06:52:14;;;;;;;;;;;;;;;-1.04;87.60;101088.81;87414;273;135953;-68
2024/02/20 06:54:16;;;;;;;4.30;3.70;;;;;;;-1.05;87.43;101093.41;87446;267;23743;-69
2024/02/20 06:56:18;;;;;;;5.30;3.00;;;;;;;-1.06;87.71;101083.84;87537;271;137119;-70
2024/02/20 06:58:20;;;;;;;6.30;3.00;;;;;;;-1.03;86.97;101088.58;87320;271;23998;-72
2024/02/20 07:00:24;;;;;;;3.40;2.90;;;;;;;-0.95;86.37;101087.25;87125;273;137035;-68
2024/02/20 07:02:26;;;;;;;5.50;3.70;;;;;;;-0.89;85.60;101094.00;87209;275;25214;-71
2024/02/20 07:04:29;;;;;;;5.10;2.90;;;;;;;-0.86;85.14;101091.39;86982;268;136376;-69
2024/02/20 07:06:35;;;;;;;3.50;2.90;;;;;;;-0.88;84.71;101083.77;87035;272;25079;-69
2024/02/20 07:08:41;;;;;;;8.80;3.50;;;;;;;-0.92;84.71;101076.58;87014;269;136091;-69
2024/02/20 07:10:43;;;;;;;9.50;4.80;;;;;;;-0.92;84.69;101076.23;87193;278;22803;-71
2024/02/20 07:12:45;;;;;;;3.10;2.80;;;;;;;-0.92;84.72;101080.91;86988;270;137147;-68
2024/02/20 07:14:47;;;;;;;5.30;3.20;;;;;;;-0.92;84.33;101080.42;87180;279;22581;-68
2024/02/20 07:16:49;;;;;;;3.40;2.80;;;;;;;-0.91;83.88;101083.98;87079;270;136626;-70
2024/02/20 07:18:50;;;;;;;3.10;2.70;;;;;;;-0.87;83.74;101074.17;87250;269;25887;-65
2024/02/20 07:20:53;;;;;;;10.00;3.80;;;;;;;-0.83;83.11;101074.58;87154;271;136773;-66
2024/02/20 07:22:55;;;;;;;6.60;3.20;;;;;;;-0.80;82.73;101067.60;87255;274;22567;-66
2024/02/20 07:25:01;;;;;;;4.10;3.70;;;;;;;-0.81;82.85;101066.95;87160;275;136209;-67
2024/02/20 07:27:04;;;;;;;3.00;2.50;;;;;;;-0.83;82.55;101065.02;87154;270;22601;-67
2024/02/20 07:29:06;;;;;;;4.20;2.90;;;;;;;-0.85;82.74;101059.54;87093;267;136259;-68
2024/02/20 07:31:08;;;;;;;5.80;3.50;;;;;;;-0.86;82.79;101052.13;87027;276;22569;-67
2024/02/20 07:33:10;;;;;;;3.70;3.30;;;;;;;-0.83;83.01;101055.77;86929;276;135979;-66
2024/02/20 07:35:13;;;;;;;5.90;3.30;;;;;;;-0.78;82.49;101060.13;87184;271;25169;-67
2024/02/20 07:37:17;;;;;;;5.10;3.00;;;;;;;-0.65;82.05;101056.88;87341;269;137903;-68
2024/02/20 07:39:19;;;;;;;2.30;2.10;;;;;;;-0.57;81.49;101057.23;87145;278;25150;-68
2024/02/20 07:41:21;;;;;;;2.70;2.50;;;;;;;-0.56;80.76;101056.17;87114;271;136482;-76
2024/02/20 07:43:23;;;;;;;5.20;3.70;;;;;;;-0.64;81.08;101051.42;87683;269;22561;-77
2024/02/20 07:45:26;;;;;;;3.90;2.80;;;;;;;-0.68;81.19;101057.56;87746;269;135903;-79
2024/02/20 07:47:27;;;;;;;5.20;3.40;;;;;;;-0.70;81.24;101056.13;87401;267;25179;-78
2024/02/20 07:49:29;;;;;;;2.60;2.40;;;;;;;-0.73;81.10;101056.86;87573;271;136228;-82
2024/02/20 07:51:34;;;;;;;3.20;2.30;;;;;;;-0.77;81.21;101053.48;87378;271;22561;-88
2024/02/20 07:53:35;;;;;;;3.20;2.60;;;;;;;-0.77;81.56;101045.80;87414;268;135765;-83
2024/02/20 07:55:41;;;;;;;5.30;3.30;;;;;;;-0.77;81.44;101050.69;87390;271;22574;-84
2024/02/20 07:57:43;;;;;;;3.30;2.50;;;;;;;-0.76;81.60;101051.16;87349;270;136259;-77
2024/02/20 07:59:46;;;;;;;3.60;2.90;;;;;;;-0.69;81.57;101050.47;87563;266;23598;-81
2024/02/20 08:01:52;;;;;;;5.50;2.40;;;;;;;-0.54;80.84;101054.11;87118;279;136302;-79
2024/02/20 08:03:55;;;;;;;4.30;2.50;;;;;;;-0.52;80.48;101050.60;87344;271;26442;-75
2024/02/20 08:05:57;;;;;;;2.70;2.50;;;;;;;-0.53;80.64;101044.46;86954;271;136097;-72
2024/02/20 08:08:00;;;;;;;2.80;2.60;;;;;;;-0.60;80.30;101058.65;87811;267;24155;-73
2024/02/20 08:10:02;;;;;;;3.10;2.30;;;;;;;-0.66;80.30;101054.64;87529;267;136039;-74
2024/02/20 08:12:05;;;;;;;4.20;2.30;;;;;;;-0.68;80.82;101047.31;87546;278;136474;-77
2024/02/20 08:14:09;;;;;;;3.10;2.60;;;;;;;-0.72;80.71;101052.80;87666;275;22682;-68
2024/02/20 08:16:12;;;;;;;3.00;2.70;;;;;;;-0.74;80.88;101046.14;87109;274;136262;-70
2024/02/20 08:18:14;;;;;;;2.80;2.60;;;;;;;-0.75;81.18;101052.66;87271;271;22558;-68
2024/02/20 08:20:16;;;;;;;3.70;3.20;;;;;;;-0.76;81.34;101044.48;87073;275;137132;-67
2024/02/20 08:22:18;;;;;;;5.10;3.00;;;;;;;-0.74;81.45;101045.76;87121;269;22559;-67
2024/02/20 08:24:20;;;;;;;4.80;3.10;;;;;;;-0.65;81.09;101030.88;87089;274;136654;-68
2024/02/20 08:26:22;;;;;;;3.00;2.50;;;;;;;-0.48;80.58;101036.74;87214;271;22661;-61
2024/02/20 08:28:24;;;;;;;5.10;4.20;;;;;;;-0.46;79.91;101028.45;86992;278;136202;-67
2024/02/20 08:30:26;;;;;;;3.60;3.20;;;;;;;-0.52;79.68;101029.66;87201;267;23740;-65
2024/02/20 08:32:28;;;;;;;5.10;3.90;;;;;;;-0.59;79.94;101039.41;87083;267;137486;-65
2024/02/20 08:34:29;;;;;;;3.00;2.70;;;;;;;-0.64;80.22;101039.88;87132;270;24114;-65
2024/02/20 08:36:33;;;;;;;2.60;2.40;;;;;;;-0.65;80.45;101046.60;87089;266;136020;-60
2024/02/20 08:38:36;;;;;;;5.70;3.10;;;;;;;-0.66;81.12;101037.54;87211;271;25089;-60
2024/02/20 08:40:38;;;;;;;3.40;3.10;;;;;;;-0.65;81.25;101037.52;87156;271;136198;-66
2024/02/20 08:42:40;;;;;;;5.40;4.00;;;;;;;-0.62;81.35;101034.86;87081;271;25201;-69
2024/02/20 08:44:43;;;;;;;4.50;3.50;;;;;;;-0.56;82.09;101039.36;87174;271;136583;-63
2024/02/20 08:46:45;;;;;;;5.40;3.80;;;;;;;-0.42;81.95;101038.98;86862;275;22575;-63
2024/02/20 08:48:47;;;;;;;3.70;3.00;;;;;;;-0.38;81.82;101028.95;87142;278;136988;-66
2024/02/20 08:50:49;;;;;;;4.00;3.10;;;;;;;-0.46;82.75;101036.80;87069;278;26303;-69
2024/02/20 08:52:51;;;;;;;3.50;3.20;;;;;;;-0.55;83.19;101030.73;87064;269;135873;-63
2024/02/20 08:54:53;;;;;;;3.20;2.90;;;;;;;-0.55;83.58;101035.96;87261;271;22575;-66
2024/02/20 08:56:58;;;;;;;9.00;3.50;;;;;;;-0.55;83.80;101031.12;87194;266;136010;-65
2024/02/20 08:58:59;;;;;;;5.00;3.60;;;;;;;-0.55;84.25;101031.42;86867;278;22579;-65
2024/02/20 09:01:01;;;;;;;5.20;3.20;;;;;;;-0.51;84.26;101030.87;87118;275;136559;-68
2024/02/20 09:03:05;;;;;;;4.60;3.20;;;;;;;-0.41;84.05;101031.77;87901;276;24074;-68
2024/02/20 09:05:11;;;;;;;9.10;4.20;;;;;;;-0.33;83.47;101034.54;87444;271;137952;-62
2024/02/20 09:07:13;;;;;;;5.80;4.10;;;;;;;-0.30;83.61;101030.02;87105;270;24896;-67
2024/02/20 09:09:15;;;;;;;9.50;3.80;;;;;;;-0.32;83.50;101028.55;87057;271;136127;-65
2024/02/20 09:11:17;;;;;;;4.90;4.40;;;;;;;-0.36;83.53;101035.48;86950;271;26245;-64
2024/02/20 09:13:19;;;;;;;3.70;2.80;;;;;;;-0.40;83.25;101028.52;87010;269;137469;-65
2024/02/20 09:15:21;;;;;;;4.00;3.40;;;;;;;-0.43;82.77;101032.77;87113;269;25082;-64
2024/02/20 09:17:22;;;;;;;4.40;4.00;;;;;;;-0.45;83.01;101030.97;87069;269;137959;-64
2024/02/20 09:19:24;;;;;;;5.20;3.90;;;;;;;-0.46;82.98;101024.92;87104;271;25209;-63
2024/02/20 09:21:26;;;;;;;5.20;3.70;;;;;;;-0.47;83.02;101027.96;86984;271;136057;-65
2024/02/20 09:23:28;;;;;;;5.90;4.10;;;;;;;-0.44;83.00;101028.16;86566;271;658582;-62
2024/02/20 09:25:30;;;;;;;5.90;3.90;;;;;;;-0.37;82.78;101018.96;87255;271;137564;-64
2024/02/20 09:27:33;;;;;;;4.20;3.90;;;;;;;-0.32;82.44;101017.94;87130;275;23862;-64
2024/02/20 09:29:34;;;;;;;4.80;4.40;;;;;;;-0.35;82.39;101012.17;87196;279;135544;-63
2024/02/20 09:31:36;;;;;;;7.00;4.30;;;;;;;-0.38;82.90;101016.91;87039;269;22575;-63
2024/02/20 09:33:38;;;;;;;5.60;4.60;;;;;;;-0.41;83.41;101022.14;87013;266;137642;-64